sensor_id;sensor_type;location;lat;lon;timestamp;temperature;humidity
3860;DHT22;1945;52.036;8.614;2024-01-30T00:01:57;3.50;1.00
3860;DHT22;1945;52.036;8.614;2024-01-30T00:04:25;3.30;1.00
3860;DHT22;1945;52.036;8.614;2024-01-30T00:06:52;2.90;1.00
3860;DHT22;1945;52.036;8.614;2024-01-30T00:09:19;2.90;1.00
3860;DHT22;1945;52.036;8.614;2024-01-30T00:11:46;2.90;1.00
3860;DHT22;1945;52.036;8.614;2024-01-30T00:14:12;2.90;1.00
3860;DHT22;1945;52.036;8.614;2024-01-30T00:16:39;2.80;1.00
3860;DHT22;1945;52.036;8.614;2024-01-30T00:19:05;2.90;1.00
3860;DHT22;1945;52.036;8.614;2024-01-30T00:21:35;2.80;1.00
3860;DHT22;1945;52.036;8.614;2024-01-30T00:24:01;2.80;1.00
3860;DHT22;1945;52.036;8.614;2024-01-30T00:26:28;2.80;1.00
3860;DHT22;1945;52.036;8.614;2024-01-30T00:28:55;2.80;1.00
3860;DHT22;1945;52.036;8.614;2024-01-30T00:31:21;2.70;1.00
3860;DHT22;1945;52.036;8.614;2024-01-30T00:33:48;2.60;1.00
3860;DHT22;1945;52.036;8.614;2024-01-30T00:36:15;2.60;1.00
3860;DHT22;1945;52.036;8.614;2024-01-30T00:38:43;2.60;1.00
3860;DHT22;1945;52.036;8.614;2024-01-30T00:41:09;2.60;1.00
3860;DHT22;1945;52.036;8.614;2024-01-30T00:43:37;2.50;1.00
3860;DHT22;1945;52.036;8.614;2024-01-30T00:46:04;2.50;1.00
3860;DHT22;1945;52.036;8.614;2024-01-30T00:48:31;2.50;1.00
3860;DHT22;1945;52.036;8.614;2024-01-30T00:50:58;2.50;1.00
3860;DHT22;1945;52.036;8.614;2024-01-30T00:53:26;2.90;32.00
3860;DHT22;1945;52.036;8.614;2024-01-30T00:55:54;2.50;14.60
3860;DHT22;1945;52.036;8.614;2024-01-30T00:58:20;2.80;76.30
3860;DHT22;1945;52.036;8.614;2024-01-30T01:00:47;2.40;99.90
3860;DHT22;1945;52.036;8.614;2024-01-30T01:03:16;2.50;99.90
3860;DHT22;1945;52.036;8.614;2024-01-30T01:05:42;2.50;99.90
3860;DHT22;1945;52.036;8.614;2024-01-30T01:08:09;2.50;99.90
3860;DHT22;1945;52.036;8.614;2024-01-30T01:10:36;2.60;99.90
3860;DHT22;1945;52.036;8.614;2024-01-30T01:13:04;2.90;99.90
3860;DHT22;1945;52.036;8.614;2024-01-30T01:15:31;2.50;99.90
3860;DHT22;1945;52.036;8.614;2024-01-30T01:17:57;2.50;99.90
3860;DHT22;1945;52.036;8.614;2024-01-30T01:20:24;2.80;99.90
3860;DHT22;1945;52.036;8.614;2024-01-30T01:22:51;2.50;99.90
3860;DHT22;1945;52.036;8.614;2024-01-30T01:25:18;2.40;99.90
3860;DHT22;1945;52.036;8.614;2024-01-30T01:27:45;2.40;99.90
3860;DHT22;1945;52.036;8.614;2024-01-30T01:30:18;2.90;99.90
3860;DHT22;1945;52.036;8.614;2024-01-30T01:32:47;2.40;99.90
3860;DHT22;1945;52.036;8.614;2024-01-30T01:35:20;2.40;99.90
3860;DHT22;1945;52.036;8.614;2024-01-30T01:37:48;2.40;99.90
3860;DHT22;1945;52.036;8.614;2024-01-30T01:40:20;2.80;99.90
3860;DHT22;1945;52.036;8.614;2024-01-30T01:42:47;2.50;99.90
3860;DHT22;1945;52.036;8.614;2024-01-30T01:45:14;3.00;99.90
3860;DHT22;1945;52.036;8.614;2024-01-30T01:47:42;2.60;1.00
3860;DHT22;1945;52.036;8.614;2024-01-30T01:50:11;2.60;99.90
3860;DHT22;1945;52.036;8.614;2024-01-30T01:52:39;2.50;99.90
3860;DHT22;1945;52.036;8.614;2024-01-30T01:55:07;2.80;99.90
3860;DHT22;1945;52.036;8.614;2024-01-30T01:57:34;2.60;1.00
3860;DHT22;1945;52.036;8.614;2024-01-30T02:00:01;2.60;1.00
3860;DHT22;1945;52.036;8.614;2024-01-30T02:02:30;2.70;1.00
3860;DHT22;1945;52.036;8.614;2024-01-30T02:05:03;2.70;1.00
3860;DHT22;1945;52.036;8.614;2024-01-30T02:07:29;2.70;1.00
3860;DHT22;1945;52.036;8.614;2024-01-30T02:09:56;3.20;1.00
3860;DHT22;1945;52.036;8.614;2024-01-30T02:12:23;2.70;1.00
3860;DHT22;1945;52.036;8.614;2024-01-30T02:14:50;2.70;1.00
3860;DHT22;1945;52.036;8.614;2024-01-30T02:17:17;2.70;1.00
3860;DHT22;1945;52.036;8.614;2024-01-30T02:19:44;2.80;1.00
3860;DHT22;1945;52.036;8.614;2024-01-30T02:22:12;2.70;1.00
3860;DHT22;1945;52.036;8.614;2024-01-30T02:24:39;3.00;1.00
3860;DHT22;1945;52.036;8.614;2024-01-30T02:27:06;2.70;1.00
3860;DHT22;1945;52.036;8.614;2024-01-30T02:29:33;2.80;1.00
3860;DHT22;1945;52.036;8.614;2024-01-30T02:31:59;2.70;1.00
3860;DHT22;1945;52.036;8.614;2024-01-30T02:34:26;2.80;1.00
3860;DHT22;1945;52.036;8.614;2024-01-30T02:36:53;3.30;1.00
3860;DHT22;1945;52.036;8.614;2024-01-30T02:39:21;2.80;1.00
3860;DHT22;1945;52.036;8.614;2024-01-30T02:41:47;2.90;1.00
3860;DHT22;1945;52.036;8.614;2024-01-30T02:44:14;2.80;1.00
3860;DHT22;1945;52.036;8.614;2024-01-30T02:46:41;2.80;1.00
3860;DHT22;1945;52.036;8.614;2024-01-30T02:49:07;3.20;1.00
3860;DHT22;1945;52.036;8.614;2024-01-30T02:51:34;3.20;1.00
3860;DHT22;1945;52.036;8.614;2024-01-30T02:54:01;2.80;1.00
3860;DHT22;1945;52.036;8.614;2024-01-30T02:56:29;2.70;1.00
3860;DHT22;1945;52.036;8.614;2024-01-30T02:58:55;2.80;1.00
3860;DHT22;1945;52.036;8.614;2024-01-30T03:01:22;2.80;27.10
3860;DHT22;1945;52.036;8.614;2024-01-30T03:03:50;2.80;25.40
3860;DHT22;1945;52.036;8.614;2024-01-30T03:06:16;2.80;79.90
3860;DHT22;1945;52.036;8.614;2024-01-30T03:08:45;3.10;99.90
3860;DHT22;1945;52.036;8.614;2024-01-30T03:11:11;2.70;1.00
3860;DHT22;1945;52.036;8.614;2024-01-30T03:13:39;3.20;1.00
3860;DHT22;1945;52.036;8.614;2024-01-30T03:16:06;2.60;1.00
3860;DHT22;1945;52.036;8.614;2024-01-30T03:18:33;2.60;1.00
3860;DHT22;1945;52.036;8.614;2024-01-30T03:20:59;2.60;1.00
3860;DHT22;1945;52.036;8.614;2024-01-30T03:23:26;3.20;1.00
3860;DHT22;1945;52.036;8.614;2024-01-30T03:25:53;2.70;1.00
3860;DHT22;1945;52.036;8.614;2024-01-30T03:28:20;2.70;58.90
3860;DHT22;1945;52.036;8.614;2024-01-30T03:30:48;2.70;4.00
3860;DHT22;1945;52.036;8.614;2024-01-30T03:33:14;3.10;1.00
3860;DHT22;1945;52.036;8.614;2024-01-30T03:35:41;2.40;1.00
3860;DHT22;1945;52.036;8.614;2024-01-30T03:38:08;2.60;1.00
3860;DHT22;1945;52.036;8.614;2024-01-30T03:40:35;2.30;1.00
3860;DHT22;1945;52.036;8.614;2024-01-30T03:43:01;2.30;1.00
3860;DHT22;1945;52.036;8.614;2024-01-30T03:45:28;2.30;1.00
3860;DHT22;1945;52.036;8.614;2024-01-30T03:47:56;2.30;1.00
3860;DHT22;1945;52.036;8.614;2024-01-30T03:50:23;2.30;1.00
3860;DHT22;1945;52.036;8.614;2024-01-30T03:52:49;2.30;1.00
3860;DHT22;1945;52.036;8.614;2024-01-30T03:55:16;2.30;1.00
3860;DHT22;1945;52.036;8.614;2024-01-30T03:57:43;2.30;1.00
3860;DHT22;1945;52.036;8.614;2024-01-30T04:00:11;2.30;1.00
3860;DHT22;1945;52.036;8.614;2024-01-30T04:02:38;2.40;1.00
3860;DHT22;1945;52.036;8.614;2024-01-30T04:05:06;3.10;99.90
3860;DHT22;1945;52.036;8.614;2024-01-30T04:07:33;2.40;1.00
3860;DHT22;1945;52.036;8.614;2024-01-30T04:10:00;2.80;1.00
3860;DHT22;1945;52.036;8.614;2024-01-30T04:12:26;2.40;1.00
3860;DHT22;1945;52.036;8.614;2024-01-30T04:14:53;2.40;91.40
3860;DHT22;1945;52.036;8.614;2024-01-30T04:17:20;2.40;68.60
3860;DHT22;1945;52.036;8.614;2024-01-30T04:19:46;2.30;1.00
3860;DHT22;1945;52.036;8.614;2024-01-30T04:22:14;2.60;1.00
3860;DHT22;1945;52.036;8.614;2024-01-30T04:24:41;2.60;1.00
3860;DHT22;1945;52.036;8.614;2024-01-30T04:27:07;2.60;1.00
3860;DHT22;1945;52.036;8.614;2024-01-30T04:29:34;2.20;1.00
3860;DHT22;1945;52.036;8.614;2024-01-30T04:32:01;2.20;1.00
3860;DHT22;1945;52.036;8.614;2024-01-30T04:34:27;2.20;1.00
3860;DHT22;1945;52.036;8.614;2024-01-30T04:36:54;2.20;1.00
3860;DHT22;1945;52.036;8.614;2024-01-30T04:39:22;2.30;25.60
3860;DHT22;1945;52.036;8.614;2024-01-30T04:41:49;2.70;26.40
3860;DHT22;1945;52.036;8.614;2024-01-30T04:44:15;2.20;1.00
3860;DHT22;1945;52.036;8.614;2024-01-30T04:46:42;2.30;1.00
3860;DHT22;1945;52.036;8.614;2024-01-30T04:49:09;2.60;1.00
3860;DHT22;1945;52.036;8.614;2024-01-30T04:51:36;2.20;1.00
3860;DHT22;1945;52.036;8.614;2024-01-30T04:54:03;2.20;1.00
3860;DHT22;1945;52.036;8.614;2024-01-30T04:56:31;2.10;1.00
3860;DHT22;1945;52.036;8.614;2024-01-30T04:58:58;2.60;1.00
3860;DHT22;1945;52.036;8.614;2024-01-30T05:01:25;2.10;1.00
3860;DHT22;1945;52.036;8.614;2024-01-30T05:03:51;2.10;1.00
3860;DHT22;1945;52.036;8.614;2024-01-30T05:06:24;2.50;1.00
3860;DHT22;1945;52.036;8.614;2024-01-30T05:08:51;2.10;1.00
3860;DHT22;1945;52.036;8.614;2024-01-30T05:11:17;2.60;1.00
3860;DHT22;1945;52.036;8.614;2024-01-30T05:13:45;2.10;1.00
3860;DHT22;1945;52.036;8.614;2024-01-30T05:16:12;2.40;1.00
3860;DHT22;1945;52.036;8.614;2024-01-30T05:18:39;2.10;1.00
3860;DHT22;1945;52.036;8.614;2024-01-30T05:21:06;2.10;1.00
3860;DHT22;1945;52.036;8.614;2024-01-30T05:23:32;2.10;1.00
3860;DHT22;1945;52.036;8.614;2024-01-30T05:25:59;2.20;99.90
3860;DHT22;1945;52.036;8.614;2024-01-30T05:28:26;2.60;91.10
3860;DHT22;1945;52.036;8.614;2024-01-30T05:30:54;2.10;39.60
3860;DHT22;1945;52.036;8.614;2024-01-30T05:33:21;2.10;99.90
3860;DHT22;1945;52.036;8.614;2024-01-30T05:35:47;2.10;99.90
3860;DHT22;1945;52.036;8.614;2024-01-30T05:38:16;2.10;99.90
3860;DHT22;1945;52.036;8.614;2024-01-30T05:40:43;2.50;94.90
3860;DHT22;1945;52.036;8.614;2024-01-30T05:43:09;2.10;99.90
3860;DHT22;1945;52.036;8.614;2024-01-30T05:45:36;2.50;99.90
3860;DHT22;1945;52.036;8.614;2024-01-30T05:48:05;2.10;99.90
3860;DHT22;1945;52.036;8.614;2024-01-30T05:50:31;2.10;99.90
3860;DHT22;1945;52.036;8.614;2024-01-30T05:52:58;2.60;99.90
3860;DHT22;1945;52.036;8.614;2024-01-30T05:55:25;2.60;99.90
3860;DHT22;1945;52.036;8.614;2024-01-30T05:57:51;2.50;99.90
3860;DHT22;1945;52.036;8.614;2024-01-30T06:00:18;2.50;99.90
3860;DHT22;1945;52.036;8.614;2024-01-30T06:02:45;2.60;99.90
3860;DHT22;1945;52.036;8.614;2024-01-30T06:05:13;2.20;99.90
3860;DHT22;1945;52.036;8.614;2024-01-30T06:07:40;2.10;99.90
3860;DHT22;1945;52.036;8.614;2024-01-30T06:10:08;2.10;99.90
3860;DHT22;1945;52.036;8.614;2024-01-30T06:12:35;2.10;99.90
3860;DHT22;1945;52.036;8.614;2024-01-30T06:15:01;2.50;99.90
3860;DHT22;1945;52.036;8.614;2024-01-30T06:17:28;2.00;99.90
3860;DHT22;1945;52.036;8.614;2024-01-30T06:19:55;2.00;99.90
3860;DHT22;1945;52.036;8.614;2024-01-30T06:22:23;2.40;99.90
3860;DHT22;1945;52.036;8.614;2024-01-30T06:24:50;1.90;99.90
3860;DHT22;1945;52.036;8.614;2024-01-30T06:27:16;1.90;99.90
3860;DHT22;1945;52.036;8.614;2024-01-30T06:29:43;2.00;99.90
3860;DHT22;1945;52.036;8.614;2024-01-30T06:32:10;2.50;99.90
3860;DHT22;1945;52.036;8.614;2024-01-30T06:34:37;2.50;99.90
3860;DHT22;1945;52.036;8.614;2024-01-30T06:37:05;2.50;99.90
3860;DHT22;1945;52.036;8.614;2024-01-30T06:39:33;2.00;99.90
3860;DHT22;1945;52.036;8.614;2024-01-30T06:42:00;2.00;99.90
3860;DHT22;1945;52.036;8.614;2024-01-30T06:44:26;1.90;99.90
3860;DHT22;1945;52.036;8.614;2024-01-30T06:46:53;2.10;99.90
3860;DHT22;1945;52.036;8.614;2024-01-30T06:49:20;2.40;99.90
3860;DHT22;1945;52.036;8.614;2024-01-30T06:51:47;2.10;99.90
3860;DHT22;1945;52.036;8.614;2024-01-30T06:54:14;2.50;99.90
3860;DHT22;1945;52.036;8.614;2024-01-30T06:56:42;2.60;99.90
3860;DHT22;1945;52.036;8.614;2024-01-30T06:59:08;2.10;99.90
3860;DHT22;1945;52.036;8.614;2024-01-30T07:01:35;2.50;99.90
3860;DHT22;1945;52.036;8.614;2024-01-30T07:04:02;2.20;99.90
3860;DHT22;1945;52.036;8.614;2024-01-30T07:06:28;2.20;1.00
3860;DHT22;1945;52.036;8.614;2024-01-30T07:08:55;2.60;1.00
3860;DHT22;1945;52.036;8.614;2024-01-30T07:11:22;2.20;1.00
3860;DHT22;1945;52.036;8.614;2024-01-30T07:13:51;2.30;1.00
3860;DHT22;1945;52.036;8.614;2024-01-30T07:16:17;2.80;1.00
3860;DHT22;1945;52.036;8.614;2024-01-30T07:18:44;2.30;1.00
3860;DHT22;1945;52.036;8.614;2024-01-30T07:21:11;2.30;1.00
3860;DHT22;1945;52.036;8.614;2024-01-30T07:23:38;2.80;1.00
3860;DHT22;1945;52.036;8.614;2024-01-30T07:26:05;2.40;1.00
3860;DHT22;1945;52.036;8.614;2024-01-30T07:28:32;2.40;1.00
3860;DHT22;1945;52.036;8.614;2024-01-30T07:31:00;2.90;1.00
3860;DHT22;1945;52.036;8.614;2024-01-30T07:33:27;2.40;1.00
3860;DHT22;1945;52.036;8.614;2024-01-30T07:35:53;2.90;1.00
3860;DHT22;1945;52.036;8.614;2024-01-30T07:38:20;2.50;1.00
3860;DHT22;1945;52.036;8.614;2024-01-30T07:40:47;3.10;1.00
3860;DHT22;1945;52.036;8.614;2024-01-30T07:43:13;2.90;1.00
3860;DHT22;1945;52.036;8.614;2024-01-30T07:45:40;2.40;1.00
3860;DHT22;1945;52.036;8.614;2024-01-30T07:48:08;2.90;1.00
3860;DHT22;1945;52.036;8.614;2024-01-30T07:50:35;3.00;1.00
3860;DHT22;1945;52.036;8.614;2024-01-30T07:53:02;2.60;1.00
3860;DHT22;1945;52.036;8.614;2024-01-30T07:55:29;3.10;1.00
3860;DHT22;1945;52.036;8.614;2024-01-30T07:57:57;2.60;1.00
3860;DHT22;1945;52.036;8.614;2024-01-30T08:00:24;2.60;1.00
3860;DHT22;1945;52.036;8.614;2024-01-30T08:02:51;2.70;1.00
3860;DHT22;1945;52.036;8.614;2024-01-30T08:05:21;2.80;1.00
3860;DHT22;1945;52.036;8.614;2024-01-30T08:07:48;3.40;1.00
3860;DHT22;1945;52.036;8.614;2024-01-30T08:10:15;3.10;1.00
3860;DHT22;1945;52.036;8.614;2024-01-30T08:12:43;3.40;1.00
3860;DHT22;1945;52.036;8.614;2024-01-30T08:15:11;3.00;1.00
3860;DHT22;1945;52.036;8.614;2024-01-30T08:17:37;3.00;1.00
3860;DHT22;1945;52.036;8.614;2024-01-30T08:20:05;3.00;1.00
3860;DHT22;1945;52.036;8.614;2024-01-30T08:22:35;3.10;1.00
3860;DHT22;1945;52.036;8.614;2024-01-30T08:25:02;3.10;1.00
3860;DHT22;1945;52.036;8.614;2024-01-30T08:27:28;3.10;1.00
3860;DHT22;1945;52.036;8.614;2024-01-30T08:29:55;3.30;1.00
3860;DHT22;1945;52.036;8.614;2024-01-30T08:32:22;3.40;1.00
3860;DHT22;1945;52.036;8.614;2024-01-30T08:34:49;4.00;1.00
3860;DHT22;1945;52.036;8.614;2024-01-30T08:37:15;3.60;1.00
3860;DHT22;1945;52.036;8.614;2024-01-30T08:39:44;3.60;1.00
3860;DHT22;1945;52.036;8.614;2024-01-30T08:42:11;3.60;1.00
3860;DHT22;1945;52.036;8.614;2024-01-30T08:44:37;3.70;1.00
3860;DHT22;1945;52.036;8.614;2024-01-30T08:47:05;4.20;1.00
3860;DHT22;1945;52.036;8.614;2024-01-30T08:49:31;4.00;1.00
3860;DHT22;1945;52.036;8.614;2024-01-30T08:51:58;4.10;1.00
3860;DHT22;1945;52.036;8.614;2024-01-30T08:54:25;4.20;1.00
3860;DHT22;1945;52.036;8.614;2024-01-30T08:56:53;4.30;1.00
3860;DHT22;1945;52.036;8.614;2024-01-30T08:59:21;4.40;1.00
3860;DHT22;1945;52.036;8.614;2024-01-30T09:01:48;4.80;99.90
3860;DHT22;1945;52.036;8.614;2024-01-30T09:04:14;4.90;99.90
3860;DHT22;1945;52.036;8.614;2024-01-30T09:06:41;5.10;99.90
3860;DHT22;1945;52.036;8.614;2024-01-30T09:09:08;5.30;99.90
3860;DHT22;1945;52.036;8.614;2024-01-30T09:11:35;5.30;99.90
3860;DHT22;1945;52.036;8.614;2024-01-30T09:14:03;5.30;1.00
3860;DHT22;1945;52.036;8.614;2024-01-30T09:16:30;5.40;94.40
3860;DHT22;1945;52.036;8.614;2024-01-30T09:18:56;5.90;71.60
3860;DHT22;1945;52.036;8.614;2024-01-30T09:21:23;5.70;41.10
3860;DHT22;1945;52.036;8.614;2024-01-30T09:23:49;5.90;25.90
3860;DHT22;1945;52.036;8.614;2024-01-30T09:26:16;6.00;1.00
3860;DHT22;1945;52.036;8.614;2024-01-30T09:28:43;6.50;1.00
3860;DHT22;1945;52.036;8.614;2024-01-30T09:31:11;6.20;1.00
3860;DHT22;1945;52.036;8.614;2024-01-30T09:33:38;6.30;1.00
3860;DHT22;1945;52.036;8.614;2024-01-30T09:36:06;6.30;1.00
3860;DHT22;1945;52.036;8.614;2024-01-30T09:38:33;6.40;1.00
3860;DHT22;1945;52.036;8.614;2024-01-30T09:41:03;6.50;1.00
3860;DHT22;1945;52.036;8.614;2024-01-30T09:43:33;6.50;99.90
3860;DHT22;1945;52.036;8.614;2024-01-30T09:46:02;7.10;1.00
3860;DHT22;1945;52.036;8.614;2024-01-30T09:48:30;7.30;99.90
3860;DHT22;1945;52.036;8.614;2024-01-30T09:50:58;7.60;99.90
3860;DHT22;1945;52.036;8.614;2024-01-30T09:53:25;7.80;1.00
3860;DHT22;1945;52.036;8.614;2024-01-30T09:55:53;8.00;1.00
3860;DHT22;1945;52.036;8.614;2024-01-30T09:58:19;8.10;1.00
3860;DHT22;1945;52.036;8.614;2024-01-30T10:00:47;8.70;1.00
3860;DHT22;1945;52.036;8.614;2024-01-30T10:03:14;8.40;99.90
3860;DHT22;1945;52.036;8.614;2024-01-30T10:05:50;8.70;90.10
3860;DHT22;1945;52.036;8.614;2024-01-30T10:08:18;8.70;67.40
3860;DHT22;1945;52.036;8.614;2024-01-30T10:10:46;8.80;1.00
3860;DHT22;1945;52.036;8.614;2024-01-30T10:13:12;8.80;1.00
3860;DHT22;1945;52.036;8.614;2024-01-30T10:15:39;8.90;1.00
3860;DHT22;1945;52.036;8.614;2024-01-30T10:18:06;8.90;1.00
3860;DHT22;1945;52.036;8.614;2024-01-30T10:20:34;8.90;1.00
3860;DHT22;1945;52.036;8.614;2024-01-30T10:23:02;8.90;1.00
3860;DHT22;1945;52.036;8.614;2024-01-30T10:25:29;9.00;1.00
3860;DHT22;1945;52.036;8.614;2024-01-30T10:27:57;9.00;1.00
3860;DHT22;1945;52.036;8.614;2024-01-30T10:30:24;9.20;1.00
3860;DHT22;1945;52.036;8.614;2024-01-30T10:32:51;9.30;1.00
3860;DHT22;1945;52.036;8.614;2024-01-30T10:35:18;9.30;1.00
3860;DHT22;1945;52.036;8.614;2024-01-30T10:37:47;9.40;1.00
3860;DHT22;1945;52.036;8.614;2024-01-30T10:40:16;9.50;1.00
3860;DHT22;1945;52.036;8.614;2024-01-30T10:42:43;9.60;1.00
3860;DHT22;1945;52.036;8.614;2024-01-30T10:45:11;9.70;1.00
3860;DHT22;1945;52.036;8.614;2024-01-30T10:47:40;9.70;1.00
3860;DHT22;1945;52.036;8.614;2024-01-30T10:50:08;10.00;1.00
3860;DHT22;1945;52.036;8.614;2024-01-30T10:52:36;9.90;1.00
3860;DHT22;1945;52.036;8.614;2024-01-30T10:55:04;9.90;1.00
3860;DHT22;1945;52.036;8.614;2024-01-30T10:57:34;10.00;1.00
3860;DHT22;1945;52.036;8.614;2024-01-30T11:00:03;10.00;1.00
3860;DHT22;1945;52.036;8.614;2024-01-30T11:02:37;10.10;1.00
3860;DHT22;1945;52.036;8.614;2024-01-30T11:05:05;10.30;1.00
3860;DHT22;1945;52.036;8.614;2024-01-30T11:07:32;10.40;1.00
3860;DHT22;1945;52.036;8.614;2024-01-30T11:10:03;10.60;1.00
3860;DHT22;1945;52.036;8.614;2024-01-30T11:12:37;10.70;99.90
3860;DHT22;1945;52.036;8.614;2024-01-30T11:15:07;10.70;99.90
3860;DHT22;1945;52.036;8.614;2024-01-30T11:17:44;10.90;99.90
3860;DHT22;1945;52.036;8.614;2024-01-30T11:20:11;10.90;99.90
3860;DHT22;1945;52.036;8.614;2024-01-30T11:22:41;11.00;99.90
3860;DHT22;1945;52.036;8.614;2024-01-30T11:25:11;11.20;99.90
3860;DHT22;1945;52.036;8.614;2024-01-30T11:27:39;11.10;99.90
3860;DHT22;1945;52.036;8.614;2024-01-30T11:30:08;11.10;99.90
3860;DHT22;1945;52.036;8.614;2024-01-30T11:32:35;11.10;99.90
3860;DHT22;1945;52.036;8.614;2024-01-30T11:35:03;11.10;99.90
3860;DHT22;1945;52.036;8.614;2024-01-30T11:37:31;11.20;99.90
3860;DHT22;1945;52.036;8.614;2024-01-30T11:39:58;11.10;99.90
3860;DHT22;1945;52.036;8.614;2024-01-30T11:42:26;11.30;99.90
3860;DHT22;1945;52.036;8.614;2024-01-30T11:44:55;11.30;99.90
3860;DHT22;1945;52.036;8.614;2024-01-30T11:47:22;11.30;99.90
3860;DHT22;1945;52.036;8.614;2024-01-30T11:49:49;11.50;99.90
3860;DHT22;1945;52.036;8.614;2024-01-30T11:52:16;11.50;99.90
3860;DHT22;1945;52.036;8.614;2024-01-30T11:54:43;11.60;99.90
3860;DHT22;1945;52.036;8.614;2024-01-30T11:57:09;11.60;99.90
3860;DHT22;1945;52.036;8.614;2024-01-30T11:59:36;11.60;99.90
3860;DHT22;1945;52.036;8.614;2024-01-30T12:02:04;11.70;99.90
3860;DHT22;1945;52.036;8.614;2024-01-30T12:04:31;11.70;99.90
3860;DHT22;1945;52.036;8.614;2024-01-30T12:06:58;11.80;99.90
3860;DHT22;1945;52.036;8.614;2024-01-30T12:09:25;11.80;99.90
3860;DHT22;1945;52.036;8.614;2024-01-30T12:11:53;11.80;99.90
3860;DHT22;1945;52.036;8.614;2024-01-30T12:14:20;11.80;99.90
3860;DHT22;1945;52.036;8.614;2024-01-30T12:16:50;11.70;99.90
3860;DHT22;1945;52.036;8.614;2024-01-30T12:19:25;11.70;99.90
3860;DHT22;1945;52.036;8.614;2024-01-30T12:21:55;11.70;99.90
3860;DHT22;1945;52.036;8.614;2024-01-30T12:24:24;11.70;99.90
3860;DHT22;1945;52.036;8.614;2024-01-30T12:26:51;11.60;99.90
3860;DHT22;1945;52.036;8.614;2024-01-30T12:29:20;11.60;99.90
3860;DHT22;1945;52.036;8.614;2024-01-30T12:31:47;11.60;99.90
3860;DHT22;1945;52.036;8.614;2024-01-30T12:34:14;11.60;99.90
3860;DHT22;1945;52.036;8.614;2024-01-30T12:36:42;11.50;99.90
3860;DHT22;1945;52.036;8.614;2024-01-30T12:39:11;11.00;99.90
3860;DHT22;1945;52.036;8.614;2024-01-30T12:41:38;11.50;99.90
3860;DHT22;1945;52.036;8.614;2024-01-30T12:44:05;11.50;99.90
3860;DHT22;1945;52.036;8.614;2024-01-30T12:46:34;11.50;99.90
3860;DHT22;1945;52.036;8.614;2024-01-30T12:49:01;11.50;99.90
3860;DHT22;1945;52.036;8.614;2024-01-30T12:51:27;11.50;99.90
3860;DHT22;1945;52.036;8.614;2024-01-30T12:53:55;11.50;99.90
3860;DHT22;1945;52.036;8.614;2024-01-30T12:56:23;11.50;99.90
3860;DHT22;1945;52.036;8.614;2024-01-30T12:58:50;11.50;99.90
3860;DHT22;1945;52.036;8.614;2024-01-30T13:01:16;11.50;99.90
3860;DHT22;1945;52.036;8.614;2024-01-30T13:03:43;11.50;99.90
3860;DHT22;1945;52.036;8.614;2024-01-30T13:06:10;11.50;99.90
3860;DHT22;1945;52.036;8.614;2024-01-30T13:08:36;11.50;99.90
3860;DHT22;1945;52.036;8.614;2024-01-30T13:11:04;11.60;99.90
3860;DHT22;1945;52.036;8.614;2024-01-30T13:13:32;11.60;99.90
3860;DHT22;1945;52.036;8.614;2024-01-30T13:15:59;11.60;99.90
3860;DHT22;1945;52.036;8.614;2024-01-30T13:18:26;11.70;99.90
3860;DHT22;1945;52.036;8.614;2024-01-30T13:20:52;11.80;99.90
3860;DHT22;1945;52.036;8.614;2024-01-30T13:23:19;11.80;99.90
3860;DHT22;1945;52.036;8.614;2024-01-30T13:25:46;11.90;99.90
3860;DHT22;1945;52.036;8.614;2024-01-30T13:28:14;11.90;99.90
3860;DHT22;1945;52.036;8.614;2024-01-30T13:30:40;11.90;99.90
3860;DHT22;1945;52.036;8.614;2024-01-30T13:33:07;11.90;99.90
3860;DHT22;1945;52.036;8.614;2024-01-30T13:35:34;11.90;99.90
3860;DHT22;1945;52.036;8.614;2024-01-30T13:38:00;11.90;99.90
3860;DHT22;1945;52.036;8.614;2024-01-30T13:40:27;11.90;99.90
3860;DHT22;1945;52.036;8.614;2024-01-30T13:42:54;11.80;99.90
3860;DHT22;1945;52.036;8.614;2024-01-30T13:45:22;11.80;99.90
3860;DHT22;1945;52.036;8.614;2024-01-30T13:47:48;11.70;99.90
3860;DHT22;1945;52.036;8.614;2024-01-30T13:50:15;11.80;99.90
3860;DHT22;1945;52.036;8.614;2024-01-30T13:52:42;11.70;99.90
3860;DHT22;1945;52.036;8.614;2024-01-30T13:55:08;11.80;99.90
3860;DHT22;1945;52.036;8.614;2024-01-30T13:57:35;11.80;99.90
3860;DHT22;1945;52.036;8.614;2024-01-30T14:00:02;11.70;99.90
3860;DHT22;1945;52.036;8.614;2024-01-30T14:02:32;11.70;99.90
3860;DHT22;1945;52.036;8.614;2024-01-30T14:04:59;11.70;99.90
3860;DHT22;1945;52.036;8.614;2024-01-30T14:07:26;11.80;99.90
3860;DHT22;1945;52.036;8.614;2024-01-30T14:09:53;11.80;99.90
3860;DHT22;1945;52.036;8.614;2024-01-30T14:12:20;11.80;99.90
3860;DHT22;1945;52.036;8.614;2024-01-30T14:14:47;11.70;99.90
3860;DHT22;1945;52.036;8.614;2024-01-30T14:17:14;11.80;99.90
3860;DHT22;1945;52.036;8.614;2024-01-30T14:19:42;11.80;99.90
3860;DHT22;1945;52.036;8.614;2024-01-30T14:22:08;11.70;99.90
3860;DHT22;1945;52.036;8.614;2024-01-30T14:24:35;11.80;99.90
3860;DHT22;1945;52.036;8.614;2024-01-30T14:27:02;11.70;99.90
3860;DHT22;1945;52.036;8.614;2024-01-30T14:29:29;11.70;1.00
3860;DHT22;1945;52.036;8.614;2024-01-30T14:31:56;11.70;1.00
3860;DHT22;1945;52.036;8.614;2024-01-30T14:34:22;11.70;1.00
3860;DHT22;1945;52.036;8.614;2024-01-30T14:36:50;11.70;1.00
3860;DHT22;1945;52.036;8.614;2024-01-30T14:39:17;11.70;1.00
3860;DHT22;1945;52.036;8.614;2024-01-30T14:41:44;11.70;1.00
3860;DHT22;1945;52.036;8.614;2024-01-30T14:44:11;11.70;1.00
3860;DHT22;1945;52.036;8.614;2024-01-30T14:46:38;11.70;1.00
3860;DHT22;1945;52.036;8.614;2024-01-30T14:49:05;11.70;1.00
3860;DHT22;1945;52.036;8.614;2024-01-30T14:51:33;11.70;1.00
3860;DHT22;1945;52.036;8.614;2024-01-30T14:54:01;11.60;1.00
3860;DHT22;1945;52.036;8.614;2024-01-30T14:56:28;11.60;1.00
3860;DHT22;1945;52.036;8.614;2024-01-30T14:58:55;11.70;99.90
3860;DHT22;1945;52.036;8.614;2024-01-30T15:01:21;11.70;99.90
3860;DHT22;1945;52.036;8.614;2024-01-30T15:03:48;11.60;99.90
3860;DHT22;1945;52.036;8.614;2024-01-30T15:06:17;11.60;99.90
3860;DHT22;1945;52.036;8.614;2024-01-30T15:08:43;11.60;99.90
3860;DHT22;1945;52.036;8.614;2024-01-30T15:11:12;11.60;99.90
3860;DHT22;1945;52.036;8.614;2024-01-30T15:13:39;11.60;99.90
3860;DHT22;1945;52.036;8.614;2024-01-30T15:16:06;11.60;99.90
3860;DHT22;1945;52.036;8.614;2024-01-30T15:18:35;11.60;99.90
3860;DHT22;1945;52.036;8.614;2024-01-30T15:21:02;11.60;99.90
3860;DHT22;1945;52.036;8.614;2024-01-30T15:23:30;11.60;99.90
3860;DHT22;1945;52.036;8.614;2024-01-30T15:25:56;11.70;99.90
3860;DHT22;1945;52.036;8.614;2024-01-30T15:28:35;11.50;99.90
3860;DHT22;1945;52.036;8.614;2024-01-30T15:31:03;11.60;99.90
3860;DHT22;1945;52.036;8.614;2024-01-30T15:33:31;11.60;99.90
3860;DHT22;1945;52.036;8.614;2024-01-30T15:35:58;11.60;99.90
3860;DHT22;1945;52.036;8.614;2024-01-30T15:38:25;11.60;99.90
3860;DHT22;1945;52.036;8.614;2024-01-30T15:40:52;11.60;99.90
3860;DHT22;1945;52.036;8.614;2024-01-30T15:43:19;11.50;99.90
3860;DHT22;1945;52.036;8.614;2024-01-30T15:45:51;11.50;99.90
3860;DHT22;1945;52.036;8.614;2024-01-30T15:48:19;11.50;99.90
3860;DHT22;1945;52.036;8.614;2024-01-30T15:50:47;11.50;99.90
3860;DHT22;1945;52.036;8.614;2024-01-30T15:53:14;11.50;99.90
3860;DHT22;1945;52.036;8.614;2024-01-30T15:55:41;11.40;99.90
3860;DHT22;1945;52.036;8.614;2024-01-30T15:58:11;11.40;99.90
3860;DHT22;1945;52.036;8.614;2024-01-30T16:00:38;11.40;99.90
3860;DHT22;1945;52.036;8.614;2024-01-30T16:03:07;11.40;1.00
3860;DHT22;1945;52.036;8.614;2024-01-30T16:05:35;11.40;99.90
3860;DHT22;1945;52.036;8.614;2024-01-30T16:08:03;11.30;99.90
3860;DHT22;1945;52.036;8.614;2024-01-30T16:10:29;11.30;1.00
3860;DHT22;1945;52.036;8.614;2024-01-30T16:12:56;11.60;1.00
3860;DHT22;1945;52.036;8.614;2024-01-30T16:15:23;11.30;1.00
3860;DHT22;1945;52.036;8.614;2024-01-30T16:17:50;11.30;1.00
3860;DHT22;1945;52.036;8.614;2024-01-30T16:20:19;11.30;1.00